Time;durP1;ratioP1;P1;durP2;ratioP2;P2;SDS_P1;SDS_P2;PMS_P1;PMS_P2;Temp;Humidity;BMP_temperature;BMP_pressure;BME280_temperature;BME280_humidity;BME280_pressure;Samples;Min_cycle;Max_cycle;Signal;HPM_P1;HPM_P2
2022/05/27 00:00:20;;;;;;;375.58;360.88;;;17.00;99.90;;;;;;5032909;28;20187;-72
2022/05/27 00:02:48;;;;;;;365.33;350.70;;;17.10;99.90;;;;;;5033658;28;20678;-71
2022/05/27 00:05:14;;;;;;;387.77;372.63;;;17.00;99.90;;;;;;5034000;28;20256;-72
2022/05/27 00:07:40;;;;;;;363.23;348.98;;;16.90;99.90;;;;;;5032346;28;20191;-71
2022/05/27 00:10:07;;;;;;;353.23;339.20;;;16.90;99.90;;;;;;5032915;28;20721;-72
2022/05/27 00:12:33;;;;;;;385.75;370.23;;;16.90;99.90;;;;;;5033592;28;20186;-71
2022/05/27 00:14:58;;;;;;;373.23;357.63;;;16.80;99.90;;;;;;5032634;28;20551;-71
2022/05/27 00:17:24;;;;;;;388.45;372.48;;;16.90;99.90;;;;;;5032334;28;20194;-72
2022/05/27 00:19:50;;;;;;;352.42;338.42;;;16.80;99.90;;;;;;5046705;28;20186;-71
2022/05/27 00:22:16;;;;;;;351.40;337.23;;;16.80;99.90;;;;;;5051507;28;20190;-70
2022/05/27 00:24:42;;;;;;;407.35;391.10;;;16.70;99.90;;;;;;5032209;28;20178;-71
2022/05/27 00:27:08;;;;;;;347.55;333.80;;;16.70;99.90;;;;;;5033790;28;20219;-72
2022/05/27 00:29:35;;;;;;;339.48;326.00;;;16.60;99.90;;;;;;5036922;28;20312;-71
2022/05/27 00:32:01;;;;;;;372.48;357.42;;;16.50;99.90;;;;;;5037978;28;20183;-72
2022/05/27 00:34:30;;;;;;;345.85;332.00;;;16.60;99.90;;;;;;5033969;28;20256;-71
2022/05/27 00:36:55;;;;;;;367.92;353.20;;;16.70;99.90;;;;;;5041318;28;20190;-72
2022/05/27 00:39:21;;;;;;;383.73;368.48;;;16.60;99.90;;;;;;5032077;28;20548;-72
2022/05/27 00:41:47;;;;;;;378.75;363.80;;;16.60;99.90;;;;;;5041842;28;20186;-71
2022/05/27 00:44:13;;;;;;;380.85;365.85;;;16.70;99.90;;;;;;5032012;28;20237;-71
2022/05/27 00:46:41;;;;;;;373.50;358.20;;;16.60;99.90;;;;;;5033145;28;20221;-71
2022/05/27 00:49:15;;;;;;;349.42;335.75;;;16.60;99.90;;;;;;5033371;28;20552;-71
2022/05/27 00:52:06;;;;;;;394.20;376.38;;;16.70;99.90;;;;;;5032821;28;20636;-71
2022/05/27 00:54:32;;;;;;;365.30;350.40;;;16.60;99.90;;;;;;5031733;28;20186;-72
2022/05/27 00:57:02;;;;;;;346.77;332.58;;;16.60;99.90;;;;;;5049357;28;20225;-72
2022/05/27 01:00:01;;;;;;;380.00;364.52;;;16.60;99.90;;;;;;5033387;28;20187;-72
2022/05/27 01:02:27;;;;;;;377.35;362.30;;;16.70;99.90;;;;;;5051324;28;20240;-71
2022/05/27 01:04:53;;;;;;;354.00;338.80;;;16.60;99.90;;;;;;5032977;28;20193;-72
2022/05/27 01:07:19;;;;;;;350.92;337.30;;;16.60;99.90;;;;;;5034528;28;20187;-72
2022/05/27 01:09:48;;;;;;;349.98;336.23;;;16.60;99.90;;;;;;5052642;28;20187;-71
2022/05/27 01:12:25;;;;;;;331.77;318.20;;;16.50;99.90;;;;;;5037034;28;20182;-71
2022/05/27 01:15:23;;;;;;;346.17;331.95;;;16.60;99.90;;;;;;5036882;28;20182;-71
2022/05/27 01:18:09;;;;;;;350.30;336.35;;;16.60;99.90;;;;;;5036779;28;20214;-71
2022/05/27 01:21:11;;;;;;;353.50;339.13;;;16.60;99.90;;;;;;5036502;28;20193;-71
2022/05/27 01:23:45;;;;;;;344.67;330.60;;;16.60;99.90;;;;;;5027856;28;20201;-72
2022/05/27 01:26:59;;;;;;;367.98;352.90;;;16.60;99.90;;;;;;5035551;28;20210;-72
2022/05/27 01:29:33;;;;;;;351.55;336.98;;;16.70;99.90;;;;;;5036758;28;20643;-72
2022/05/27 01:32:08;;;;;;;348.45;333.20;;;16.90;99.90;;;;;;5036552;28;20205;-71
2022/05/27 01:35:04;;;;;;;297.83;285.60;;;16.80;99.90;;;;;;5036640;28;20193;-70
2022/05/27 01:37:47;;;;;;;321.63;308.77;;;16.60;99.90;;;;;;5068793;28;20187;-70
2022/05/27 01:40:32;;;;;;;271.95;261.20;;;16.60;99.90;;;;;;5036339;28;20615;-70
2022/05/27 01:43:05;;;;;;;299.83;287.58;;;16.60;99.90;;;;;;5036715;28;20187;-69
2022/05/27 01:45:51;;;;;;;289.63;278.20;;;16.60;99.90;;;;;;5035624;28;20706;-69
2022/05/27 01:48:22;;;;;;;278.35;266.77;;;16.60;99.90;;;;;;5044761;28;20194;-70
2022/05/27 01:51:26;;;;;;;310.95;298.38;;;16.60;99.90;;;;;;5052775;28;20186;-70
2022/05/27 01:53:59;;;;;;;297.25;285.02;;;16.50;99.90;;;;;;5049515;28;20766;-69
2022/05/27 01:56:31;;;;;;;312.73;299.58;;;16.50;99.90;;;;;;5032459;28;20199;-70
2022/05/27 01:59:09;;;;;;;278.08;266.05;;;16.40;99.90;;;;;;5036262;28;20550;-70
2022/05/27 02:01:39;;;;;;;314.58;301.55;;;16.30;99.90;;;;;;5036693;28;21736;-70
2022/05/27 02:04:15;;;;;;;329.92;315.92;;;16.40;99.90;;;;;;5035165;28;20190;-70
2022/05/27 02:06:49;;;;;;;319.40;306.33;;;16.30;99.90;;;;;;5035689;28;20221;-70
2022/05/27 02:09:18;;;;;;;346.20;331.40;;;16.20;99.90;;;;;;5036035;28;20643;-70
2022/05/27 02:11:48;;;;;;;308.60;295.42;;;16.10;99.90;;;;;;5035961;28;20641;-70
2022/05/27 02:14:33;;;;;;;305.92;293.08;;;16.20;99.90;;;;;;5053314;28;20240;-69
2022/05/27 02:17:05;;;;;;;297.98;285.35;;;16.30;99.90;;;;;;5035589;28;20194;-70
2022/05/27 02:19:36;;;;;;;314.38;300.42;;;16.20;99.90;;;;;;5051034;28;20214;-70
2022/05/27 02:22:16;;;;;;;287.92;275.45;;;16.10;99.90;;;;;;5050604;28;20178;-69
2022/05/27 02:25:10;;;;;;;298.27;285.25;;;16.10;99.90;;;;;;5043522;28;20174;-70
2022/05/27 02:27:57;;;;;;;333.85;319.10;;;16.20;99.90;;;;;;5034935;28;20297;-70
2022/05/27 02:30:29;;;;;;;303.50;289.83;;;16.20;99.90;;;;;;5035851;28;20614;-70
2022/05/27 02:35:55;;;;;;;315.50;301.50;;;16.00;99.90;;;;;;5036032;28;20221;-71
2022/05/27 02:38:21;;;;;;;336.48;321.73;;;16.00;99.90;;;;;;5034216;28;20214;-70
2022/05/27 02:40:58;;;;;;;322.27;308.13;;;16.00;99.90;;;;;;5034437;28;20213;-70
2022/05/27 02:43:57;;;;;;;376.85;359.88;;;16.10;99.90;;;;;;5035463;28;20190;-70
2022/05/27 02:46:28;;;;;;;353.65;338.58;;;16.10;99.90;;;;;;5034806;28;20210;-70
2022/05/27 02:49:25;;;;;;;380.00;363.27;;;16.10;99.90;;;;;;5053826;28;20332;-70
2022/05/27 02:51:59;;;;;;;356.88;341.10;;;16.10;99.90;;;;;;5044227;28;20174;-70
2022/05/27 02:54:25;;;;;;;355.67;340.27;;;16.10;99.90;;;;;;5038421;28;20610;-70
2022/05/27 02:57:04;;;;;;;372.95;356.38;;;16.20;99.90;;;;;;5045333;28;20191;-70
2022/05/27 02:59:31;;;;;;;353.58;338.05;;;16.20;99.90;;;;;;5037185;28;20174;-71
2022/05/27 03:02:14;;;;;;;364.38;349.02;;;16.30;99.90;;;;;;5052394;28;20186;-70
2022/05/27 03:04:44;;;;;;;382.48;364.98;;;16.20;99.90;;;;;;5033664;28;20191;-70
2022/05/27 03:07:25;;;;;;;356.23;340.98;;;16.20;99.90;;;;;;5076870;28;20212;-70
2022/05/27 03:09:59;;;;;;;369.80;353.92;;;16.20;99.90;;;;;;5037013;28;20186;-70
2022/05/27 03:12:39;;;;;;;374.30;358.60;;;16.20;99.90;;;;;;5033470;28;20704;-70
2022/05/27 03:15:25;;;;;;;365.45;349.95;;;16.30;99.90;;;;;;5052220;28;20181;-70
2022/05/27 03:18:10;;;;;;;370.58;355.10;;;16.40;99.90;;;;;;5066676;28;20174;-70
2022/05/27 03:20:47;;;;;;;358.23;343.35;;;16.30;99.90;;;;;;5034538;28;20619;-71
2022/05/27 03:23:34;;;;;;;340.52;325.92;;;16.20;99.90;;;;;;5066905;28;20200;-70
2022/05/27 03:26:13;;;;;;;348.17;333.63;;;16.30;99.90;;;;;;5050890;28;20204;-70
2022/05/27 03:29:09;;;;;;;351.13;336.10;;;16.40;99.90;;;;;;5033596;28;20252;-70
2022/05/27 03:31:47;;;;;;;357.02;342.15;;;16.40;99.90;;;;;;5034555;28;20190;-70
2022/05/27 03:34:26;;;;;;;363.00;347.58;;;16.40;99.90;;;;;;5034734;28;20304;-70
2022/05/27 03:37:04;;;;;;;333.38;319.10;;;16.30;99.90;;;;;;5033437;28;20259;-70
2022/05/27 03:39:54;;;;;;;337.02;322.80;;;16.40;99.90;;;;;;5038605;28;20221;-70
2022/05/27 03:42:23;;;;;;;355.40;340.10;;;16.50;99.90;;;;;;5037779;28;20636;-70
2022/05/27 03:45:10;;;;;;;333.63;319.13;;;16.50;99.90;;;;;;5046493;28;20193;-70
2022/05/27 03:47:37;;;;;;;302.52;289.42;;;16.50;99.90;;;;;;5033235;28;20217;-70
2022/05/27 03:50:05;;;;;;;320.52;306.92;;;16.40;99.90;;;;;;5033972;28;20182;-70
2022/05/27 03:52:37;;;;;;;321.58;308.20;;;16.40;99.90;;;;;;5041458;28;20539;-70
2022/05/27 03:55:07;;;;;;;327.20;313.55;;;16.20;99.90;;;;;;5034200;28;20526;-70
2022/05/27 03:57:32;;;;;;;305.02;291.58;;;16.20;99.90;;;;;;5037107;28;20297;-70
2022/05/27 03:59:58;;;;;;;308.00;295.17;;;16.20;99.90;;;;;;5042996;28;20648;-70
2022/05/27 04:02:24;;;;;;;296.45;284.35;;;16.10;99.90;;;;;;5032394;28;20204;-70
2022/05/27 04:04:49;;;;;;;292.27;280.02;;;16.10;99.90;;;;;;5038600;28;20186;-69
2022/05/27 04:07:15;;;;;;;289.88;277.48;;;16.20;99.90;;;;;;5050008;28;20213;-69
2022/05/27 04:09:41;;;;;;;311.25;297.75;;;16.00;99.90;;;;;;5034156;28;20194;-69
2022/05/27 04:12:07;;;;;;;299.75;286.75;;;16.00;99.90;;;;;;5041923;28;20221;-69
2022/05/27 04:14:33;;;;;;;298.38;285.83;;;16.00;99.90;;;;;;5039499;28;20190;-69
2022/05/27 04:19:44;;;;;;;293.95;280.83;;;15.90;99.90;;;;;;5033589;28;20201;-69
2022/05/27 04:22:10;;;;;;;283.08;270.70;;;15.80;99.90;;;;;;5033406;28;20255;-69
2022/05/27 04:24:40;;;;;;;310.88;297.35;;;15.80;99.90;;;;;;5042909;28;20198;-69
2022/05/27 04:27:12;;;;;;;300.23;286.95;;;15.90;99.90;;;;;;5051479;28;20667;-69
2022/05/27 04:29:42;;;;;;;302.48;289.40;;;15.90;99.90;;;;;;5037539;28;20199;-68
2022/05/27 04:32:09;;;;;;;326.83;312.45;;;16.00;99.90;;;;;;5033379;28;20232;-69
2022/05/27 04:34:35;;;;;;;1999.90;999.90;;;16.00;99.90;;;;;;5033562;28;20187;-69
2022/05/27 04:37:01;;;;;;;76.82;73.88;;;15.90;99.90;;;;;;5033373;28;20201;-69
2022/05/27 04:39:27;;;;;;;75.85;72.75;;;15.90;99.90;;;;;;5033419;28;20201;-69
2022/05/27 04:41:52;;;;;;;71.60;67.95;;;15.80;99.90;;;;;;5016123;28;20192;-70
2022/05/27 04:44:18;;;;;;;70.40;67.40;;;15.80;99.90;;;;;;5032545;28;20187;-70
2022/05/27 04:46:45;;;;;;;70.38;67.22;;;15.70;99.90;;;;;;5032068;28;20210;-70
2022/05/27 04:49:50;;;;;;;71.22;67.93;;;15.80;99.90;;;;;;5032916;28;20186;-70
2022/05/27 04:51:57;;;;;;;65.32;62.30;;;15.90;99.90;;;;;;5031975;28;20194;-70
2022/05/27 04:54:23;;;;;;;65.88;62.60;;;15.90;99.90;;;;;;5016066;28;20195;-70
2022/05/27 04:56:49;;;;;;;68.65;65.53;;;15.90;99.90;;;;;;5043949;28;20757;-71
2022/05/27 04:59:15;;;;;;;70.25;66.70;;;15.90;99.90;;;;;;5032286;28;20183;-70
2022/05/27 05:01:40;;;;;;;73.40;70.25;;;15.90;99.90;;;;;;5042683;28;20209;-70
2022/05/27 05:04:06;;;;;;;75.60;72.13;;;15.90;99.90;;;;;;5051413;28;20217;-71
2022/05/27 05:06:32;;;;;;;75.60;72.07;;;15.90;99.90;;;;;;5052026;28;20300;-69
2022/05/27 05:08:58;;;;;;;91.13;87.07;;;16.00;99.90;;;;;;5055418;28;20191;-70
2022/05/27 05:11:23;;;;;;;81.13;77.63;;;16.10;99.90;;;;;;5031661;28;20691;-70
2022/05/27 05:13:49;;;;;;;105.05;99.93;;;16.00;99.90;;;;;;5034861;28;20197;-70
2022/05/27 05:16:15;;;;;;;111.55;106.97;;;16.00;99.90;;;;;;5033245;28;20183;-70
2022/05/27 05:18:41;;;;;;;120.18;114.90;;;15.90;99.90;;;;;;5033347;28;20187;-70
2022/05/27 05:21:07;;;;;;;128.75;123.63;;;15.90;99.90;;;;;;5045774;28;20198;-70
2022/05/27 05:23:32;;;;;;;118.10;112.63;;;15.70;99.90;;;;;;5031738;28;20199;-66
2022/05/27 05:25:58;;;;;;;128.98;123.80;;;15.80;99.90;;;;;;5038966;28;20209;-70
2022/05/27 05:28:24;;;;;;;134.02;128.38;;;16.00;99.90;;;;;;5052200;28;20202;-71
2022/05/27 05:30:50;;;;;;;129.02;123.55;;;15.90;99.90;;;;;;5051683;28;20728;-72
2022/05/27 05:33:15;;;;;;;133.02;127.38;;;15.90;99.90;;;;;;5042498;28;20241;-74
2022/05/27 05:35:42;;;;;;;145.32;139.68;;;15.90;99.90;;;;;;5031502;28;20182;-73
2022/05/27 05:38:08;;;;;;;149.27;143.57;;;15.90;99.90;;;;;;5048675;28;20187;-71
2022/05/27 05:40:33;;;;;;;149.27;143.30;;;16.00;99.90;;;;;;5032411;28;20546;-72
2022/05/27 05:43:01;;;;;;;145.93;139.90;;;16.00;99.90;;;;;;5031416;28;20254;-76
2022/05/27 05:45:27;;;;;;;149.80;143.27;;;16.00;99.90;;;;;;5046237;28;20309;-77
2022/05/27 05:47:53;;;;;;;145.65;139.88;;;16.00;99.90;;;;;;5031169;28;20191;-76
2022/05/27 05:50:19;;;;;;;130.57;125.50;;;16.10;99.90;;;;;;5044827;28;20240;-77
2022/05/27 05:52:46;;;;;;;141.75;135.82;;;16.10;99.90;;;;;;5035771;28;20210;-75
2022/05/27 05:55:14;;;;;;;135.98;130.38;;;16.20;99.90;;;;;;5046963;28;20213;-73
2022/05/27 05:57:42;;;;;;;134.50;128.93;;;16.20;99.90;;;;;;5036123;28;20198;-78
2022/05/27 06:00:10;;;;;;;128.27;122.93;;;16.30;99.90;;;;;;5049776;28;20197;-74
2022/05/27 06:02:36;;;;;;;112.18;107.22;;;16.20;99.90;;;;;;5040496;28;20671;-78
2022/05/27 06:05:03;;;;;;;113.85;109.15;;;16.30;99.90;;;;;;5054403;28;20190;-74
2022/05/27 06:07:30;;;;;;;115.47;110.75;;;16.50;99.90;;;;;;5037636;28;20221;-75
2022/05/27 06:09:56;;;;;;;114.75;109.55;;;16.60;99.90;;;;;;5036445;28;20253;-72
2022/05/27 06:12:23;;;;;;;109.53;105.07;;;16.60;99.90;;;;;;5034732;28;20186;-70
2022/05/27 06:14:50;;;;;;;83.43;79.72;;;16.80;99.90;;;;;;5035843;28;20698;-70
2022/05/27 06:17:16;;;;;;;86.75;82.88;;;17.00;99.90;;;;;;5035069;28;20194;-71
2022/05/27 06:19:42;;;;;;;76.10;72.15;;;17.30;99.90;;;;;;5051095;28;20194;-72
2022/05/27 06:22:08;;;;;;;80.40;76.57;;;17.20;99.90;;;;;;5050431;28;20191;-75
2022/05/27 06:24:33;;;;;;;70.10;66.38;;;17.10;99.90;;;;;;5039967;28;20187;-71
2022/05/27 06:26:59;;;;;;;74.65;71.32;;;17.10;99.90;;;;;;5028771;28;20294;-75
2022/05/27 06:34:53;;;;;;;72.25;69.10;;;17.90;99.90;;;;;;5035661;28;20252;-74
2022/05/27 06:37:23;;;;;;;64.35;61.47;;;18.30;99.90;;;;;;5050067;28;20193;-70
2022/05/27 06:39:49;;;;;;;71.15;67.18;;;18.60;99.90;;;;;;5039647;28;20194;-72
2022/05/27 06:42:16;;;;;;;76.78;72.88;;;18.80;99.90;;;;;;5051184;28;20514;-72
2022/05/27 06:44:42;;;;;;;88.00;83.57;;;19.10;99.90;;;;;;5050927;28;20194;-72
2022/05/27 06:47:09;;;;;;;94.40;90.63;;;19.00;99.90;;;;;;5033960;28;20210;-71
2022/05/27 06:49:37;;;;;;;84.28;80.50;;;19.10;99.90;;;;;;5067476;28;20187;-70
2022/05/27 06:52:03;;;;;;;73.68;70.07;;;19.20;99.90;;;;;;5034572;28;20191;-75
2022/05/27 06:54:29;;;;;;;87.82;83.88;;;19.20;99.90;;;;;;5044265;28;20221;-72
2022/05/27 06:56:55;;;;;;;105.22;100.32;;;19.30;99.90;;;;;;5045203;28;20225;-72
2022/05/27 06:59:23;;;;;;;175.70;168.73;;;19.50;99.90;;;;;;5071417;28;20190;-72
2022/05/27 07:01:49;;;;;;;248.73;239.35;;;20.20;99.90;;;;;;5047164;28;20210;-72
2022/05/27 07:04:17;;;;;;;402.92;386.90;;;21.10;99.90;;;;;;5032714;28;20550;-72
2022/05/27 07:06:45;;;;;;;456.67;438.35;;;21.30;99.90;;;;;;5034592;28;20206;-72
2022/05/27 07:09:19;;;;;;;445.02;427.35;;;21.30;99.90;;;;;;5034448;28;20182;-72
2022/05/27 07:11:47;;;;;;;397.23;381.95;;;21.20;99.90;;;;;;5033818;28;20269;-72
2022/05/27 07:14:13;;;;;;;404.35;388.30;;;21.10;99.90;;;;;;5042631;28;20244;-72
2022/05/27 07:16:40;;;;;;;434.17;416.42;;;21.00;99.90;;;;;;5039355;28;20205;-72
2022/05/27 07:19:06;;;;;;;403.08;387.08;;;20.60;99.90;;;;;;5036196;28;20194;-76
2022/05/27 07:21:40;;;;;;;389.42;374.17;;;20.40;99.90;;;;;;5035642;28;20195;-73
2022/05/27 07:24:10;;;;;;;384.63;370.02;;;20.40;99.90;;;;;;5034816;28;20548;-71
2022/05/27 07:26:37;;;;;;;313.88;302.20;;;20.00;99.90;;;;;;5032810;28;20211;-73
2022/05/27 07:29:03;;;;;;;312.58;300.75;;;19.90;99.90;;;;;;5049751;28;20198;-71
2022/05/27 07:31:29;;;;;;;297.67;286.83;;;20.30;99.90;;;;;;5032812;28;20503;-71
2022/05/27 07:33:55;;;;;;;384.92;369.95;;;21.60;99.90;;;;;;5033541;28;20198;-71
2022/05/27 07:36:21;;;;;;;509.15;487.63;;;22.70;99.90;;;;;;5032727;28;20678;-71
2022/05/27 07:38:51;;;;;;;539.03;515.83;;;23.20;99.90;;;;;;5033214;28;20194;-71
2022/05/27 07:41:17;;;;;;;572.95;547.55;;;23.20;99.90;;;;;;5034459;28;20444;-71
2022/05/27 07:43:43;;;;;;;592.17;564.92;;;23.30;99.90;;;;;;5041341;28;20265;-71
2022/05/27 07:46:09;;;;;;;657.17;625.55;;;23.90;99.90;;;;;;5055954;28;20317;-71
2022/05/27 07:48:34;;;;;;;698.53;663.03;;;24.30;99.90;;;;;;5035420;28;20662;-71
2022/05/27 07:51:00;;;;;;;718.92;681.47;;;23.40;99.90;;;;;;5038325;28;20194;-71
2022/05/27 07:53:26;;;;;;;736.75;697.88;;;22.90;99.90;;;;;;5050484;28;20188;-72
2022/05/27 07:55:51;;;;;;;721.17;683.85;;;22.70;99.90;;;;;;5050883;28;20635;-71
2022/05/27 07:58:17;;;;;;;722.45;684.72;;;22.70;99.90;;;;;;5054742;28;20269;-71
2022/05/27 08:00:43;;;;;;;741.65;702.70;;;22.20;99.90;;;;;;5034157;28;20191;-71
2022/05/27 08:03:08;;;;;;;729.25;690.92;;;21.50;99.90;;;;;;5033822;28;20202;-71
2022/05/27 08:05:35;;;;;;;722.63;685.17;;;20.90;99.90;;;;;;5043741;28;20210;-71
2022/05/27 08:08:02;;;;;;;679.90;646.65;;;20.70;99.90;;;;;;5034732;28;20194;-71
2022/05/27 08:10:32;;;;;;;581.85;555.85;;;20.20;99.90;;;;;;5033642;28;20183;-72
2022/05/27 08:12:58;;;;;;;479.70;459.60;;;20.00;99.90;;;;;;5059638;28;20183;-71
2022/05/27 08:15:24;;;;;;;369.80;355.88;;;21.10;99.90;;;;;;5032213;28;20709;-71
2022/05/27 08:17:50;;;;;;;490.40;470.02;;;22.60;99.90;;;;;;5046691;28;20202;-71
2022/05/27 08:20:20;;;;;;;560.00;535.22;;;23.00;99.90;;;;;;5039307;28;20191;-74
2022/05/27 08:22:47;;;;;;;620.10;591.22;;;24.30;99.90;;;;;;5032035;28;20223;-72
2022/05/27 08:25:13;;;;;;;677.72;644.38;;;25.20;99.90;;;;;;5081170;28;20272;-70
2022/05/27 08:27:39;;;;;;;757.55;716.10;;;26.00;99.90;;;;;;5033732;28;20260;-73
2022/05/27 08:30:08;;;;;;;770.63;728.42;;;26.20;99.90;;;;;;5043848;28;20181;-73
2022/05/27 08:32:34;;;;;;;823.83;775.42;;;27.70;99.90;;;;;;5039686;28;20566;-73
2022/05/27 08:38:05;;;;;;;936.30;877.25;;;26.70;99.90;;;;;;5032506;28;20197;-73
2022/05/27 08:40:51;;;;;;;920.15;862.45;;;26.00;99.90;;;;;;5039382;28;20186;-73
2022/05/27 08:43:31;;;;;;;858.97;806.90;;;24.40;99.90;;;;;;5046690;28;20193;-71
2022/05/27 08:46:34;;;;;;;841.42;791.42;;;24.30;99.90;;;;;;5046061;28;20677;-72
2022/05/27 08:49:05;;;;;;;845.10;794.67;;;25.60;99.90;;;;;;5034386;28;20658;-71
2022/05/27 08:51:47;;;;;;;873.50;820.33;;;25.20;99.90;;;;;;5046311;28;20188;-71
2022/05/27 08:54:23;;;;;;;824.15;776.03;;;25.10;99.90;;;;;;5033552;28;20186;-72
2022/05/27 08:59:42;;;;;;;877.45;824.03;;;27.10;99.90;;;;;;5032115;28;20245;-72
2022/05/27 09:02:38;;;;;;;917.75;860.33;;;27.20;99.90;;;;;;5032937;28;20226;-71
2022/05/27 09:05:21;;;;;;;937.63;878.20;;;25.90;99.90;;;;;;5033419;28;20182;-72
2022/05/27 09:08:04;;;;;;;922.22;864.33;;;24.80;99.90;;;;;;5033000;28;20667;-72
2022/05/27 09:11:07;;;;;;;884.55;830.20;;;23.90;99.90;;;;;;5039382;28;20373;-71
2022/05/27 09:13:44;;;;;;;825.03;776.88;;;23.20;99.90;;;;;;5046230;28;20542;-71
2022/05/27 09:16:34;;;;;;;802.97;756.97;;;22.60;99.90;;;;;;5040947;28;20194;-71
2022/05/27 09:19:18;;;;;;;769.97;728.05;;;22.80;99.90;;;;;;5082809;28;20220;-71
2022/05/27 09:21:47;;;;;;;763.30;721.67;;;23.70;99.90;;;;;;5036051;28;20269;-72
2022/05/27 09:24:24;;;;;;;777.55;734.35;;;24.70;99.90;;;;;;5032796;28;20192;-71
2022/05/27 09:27:07;;;;;;;795.38;750.50;;;25.10;99.90;;;;;;5041729;28;20678;-71
2022/05/27 09:29:51;;;;;;;836.40;787.00;;;24.90;99.90;;;;;;5037478;28;20183;-72
2022/05/27 09:32:43;;;;;;;852.17;801.20;;;24.30;99.90;;;;;;5036992;28;20178;-72
2022/05/27 09:35:27;;;;;;;836.17;786.92;;;23.50;99.90;;;;;;5036774;28;20167;-71
2022/05/27 09:37:55;;;;;;;783.72;740.33;;;22.90;99.90;;;;;;5036448;28;20190;-72
2022/05/27 09:40:42;;;;;;;779.67;735.88;;;22.50;99.90;;;;;;5052440;28;20177;-72
2022/05/27 09:43:21;;;;;;;742.25;702.58;;;22.30;99.90;;;;;;5053171;28;20182;-72
2022/05/27 09:46:06;;;;;;;708.85;672.63;;;22.00;99.90;;;;;;5036139;28;20206;-72
2022/05/27 09:48:32;;;;;;;702.85;667.10;;;21.70;99.90;;;;;;5049462;28;20200;-72
2022/05/27 09:51:01;;;;;;;691.85;657.20;;;22.20;99.90;;;;;;5038450;28;20179;-72
2022/05/27 09:53:52;;;;;;;688.90;654.88;;;22.70;99.90;;;;;;5036818;28;20187;-72
2022/05/27 09:56:35;;;;;;;691.22;656.95;;;23.00;99.90;;;;;;5031734;28;20271;-72
2022/05/27 09:59:26;;;;;;;705.65;669.58;;;22.80;99.90;;;;;;5036294;28;20229;-72
2022/05/27 10:02:11;;;;;;;689.60;655.45;;;22.50;99.90;;;;;;5050631;28;20216;-72
2022/05/27 10:04:55;;;;;;;726.35;688.85;;;22.60;99.90;;;;;;5036489;28;20202;-73
2022/05/27 10:07:49;;;;;;;727.83;690.15;;;22.70;99.90;;;;;;5046153;28;20198;-72
2022/05/27 10:10:22;;;;;;;703.53;667.78;;;22.50;99.90;;;;;;5041474;28;20193;-72
2022/05/27 10:12:48;;;;;;;716.45;679.72;;;22.30;99.90;;;;;;5035075;28;20627;-71
2022/05/27 10:15:35;;;;;;;734.08;695.90;;;21.90;99.90;;;;;;5034739;28;20190;-72
2022/05/27 10:18:21;;;;;;;710.50;673.08;;;21.80;99.90;;;;;;5036222;28;20185;-71
2022/05/27 10:21:01;;;;;;;719.92;682.53;;;21.70;99.90;;;;;;5034614;28;20217;-71
2022/05/27 10:23:34;;;;;;;690.55;655.15;;;21.60;99.90;;;;;;5035764;28;20185;-71
2022/05/27 10:26:20;;;;;;;685.15;651.17;;;21.50;99.90;;;;;;5044538;28;20298;-72
2022/05/27 10:29:10;;;;;;;659.10;627.22;;;21.40;99.90;;;;;;5036769;28;20237;-71
2022/05/27 10:31:37;;;;;;;661.58;629.22;;;21.70;99.90;;;;;;5052735;28;20186;-72
2022/05/27 10:34:03;;;;;;;687.25;653.30;;;21.60;99.90;;;;;;5041605;28;20257;-71
2022/05/27 10:36:29;;;;;;;703.35;667.40;;;21.40;99.90;;;;;;5034238;28;20183;-71
2022/05/27 10:39:32;;;;;;;694.55;659.33;;;21.30;99.90;;;;;;5035227;28;20179;-70
2022/05/27 10:42:25;;;;;;;681.30;647.90;;;21.50;99.90;;;;;;5035093;28;20225;-72
2022/05/27 10:45:02;;;;;;;691.40;656.15;;;21.40;99.90;;;;;;5047525;28;20193;-71
2022/05/27 10:47:37;;;;;;;692.42;656.30;;;21.60;99.90;;;;;;5034169;28;20643;-70
2022/05/27 10:50:23;;;;;;;693.03;658.38;;;21.70;99.90;;;;;;5045750;28;20194;-68
2022/05/27 10:53:02;;;;;;;706.92;671.08;;;21.60;99.90;;;;;;5035921;28;20591;-69
2022/05/27 10:55:51;;;;;;;685.92;651.85;;;21.20;99.90;;;;;;5035388;28;20697;-69
2022/05/27 11:04:12;;;;;;;681.22;647.67;;;21.40;99.90;;;;;;5035237;28;20210;-69
2022/05/27 11:06:56;;;;;;;686.13;651.75;;;21.70;99.90;;;;;;5035061;28;20786;-70
2022/05/27 11:09:37;;;;;;;707.17;670.47;;;21.50;99.90;;;;;;5035152;28;20199;-70
2022/05/27 11:12:25;;;;;;;710.80;674.70;;;21.30;99.90;;;;;;5067060;28;20179;-70
2022/05/27 11:15:12;;;;;;;705.83;670.30;;;21.20;99.90;;;;;;5041636;28;20265;-69
2022/05/27 11:18:07;;;;;;;682.08;648.45;;;21.20;99.90;;;;;;5043758;28;20670;-69
2022/05/27 11:20:47;;;;;;;681.38;647.83;;;21.50;99.90;;;;;;5033396;28;20210;-69
2022/05/27 11:23:48;;;;;;;697.22;661.35;;;21.70;99.90;;;;;;5034498;28;20635;-69
2022/05/27 11:26:40;;;;;;;717.05;680.17;;;22.10;99.90;;;;;;5049930;28;20586;-70
2022/05/27 11:29:44;;;;;;;737.80;699.20;;;21.80;99.90;;;;;;5032763;28;20207;-69
2022/05/27 11:32:16;;;;;;;726.53;688.80;;;21.70;99.90;;;;;;5034498;28;20197;-69
2022/05/27 11:35:01;;;;;;;739.72;700.95;;;21.70;99.90;;;;;;5038353;28;20186;-70
2022/05/27 11:37:41;;;;;;;736.15;697.72;;;21.70;99.90;;;;;;5050006;28;20191;-71
2022/05/27 11:40:16;;;;;;;737.78;698.97;;;21.80;99.90;;;;;;5033321;28;20233;-72
2022/05/27 11:43:07;;;;;;;761.15;720.25;;;21.70;99.90;;;;;;5032571;28;20186;-72
2022/05/27 11:45:35;;;;;;;743.00;703.75;;;21.30;99.90;;;;;;5034179;28;20185;-72
2022/05/27 11:48:02;;;;;;;745.65;706.13;;;21.30;99.90;;;;;;5033913;28;20592;-72
2022/05/27 11:50:58;;;;;;;734.70;695.05;;;21.50;99.90;;;;;;5033551;28;20194;-72
2022/05/27 11:53:51;;;;;;;729.05;690.90;;;21.30;99.90;;;;;;5034030;28;20625;-71
2022/05/27 11:56:34;;;;;;;699.85;664.53;;;21.00;99.90;;;;;;5033735;28;20539;-72
2022/05/27 11:59:12;;;;;;;679.75;646.00;;;20.80;99.90;;;;;;5034024;28;20547;-71
2022/05/27 12:01:55;;;;;;;701.38;665.47;;;21.00;99.90;;;;;;5032531;28;20187;-73
2022/05/27 12:04:58;;;;;;;703.92;667.50;;;20.90;99.90;;;;;;5034099;28;20187;-72
2022/05/27 12:07:42;;;;;;;685.78;651.50;;;20.60;99.90;;;;;;5056115;28;20253;-71
2022/05/27 12:10:40;;;;;;;677.50;643.97;;;20.40;99.90;;;;;;5033604;28;20185;-72
2022/05/27 12:13:12;;;;;;;703.08;667.40;;;20.40;99.90;;;;;;5048278;28;20251;-69
2022/05/27 12:15:56;;;;;;;656.63;624.90;;;20.20;99.90;;;;;;5036854;28;20213;-72
2022/05/27 12:18:46;;;;;;;692.40;657.20;;;20.00;99.90;;;;;;5033563;28;20210;-70
2022/05/27 12:21:24;;;;;;;666.65;633.60;;;20.10;99.90;;;;;;5033478;28;20574;-71
2022/05/27 12:24:06;;;;;;;677.60;642.50;;;20.20;99.90;;;;;;5033615;28;20186;-71
2022/05/27 12:26:35;;;;;;;662.40;630.38;;;20.10;99.90;;;;;;5033741;28;20213;-69
2022/05/27 12:29:05;;;;;;;645.80;615.22;;;20.20;99.90;;;;;;5033405;28;20214;-70
2022/05/27 12:31:32;;;;;;;662.13;629.53;;;20.30;99.90;;;;;;5042855;28;20183;-70
2022/05/27 12:34:17;;;;;;;668.35;635.33;;;20.40;99.90;;;;;;5033316;28;20588;-70
2022/05/27 12:36:43;;;;;;;672.13;638.15;;;20.50;99.90;;;;;;5032881;28;20218;-69
2022/05/27 12:39:09;;;;;;;669.80;636.92;;;20.50;99.90;;;;;;5050721;28;20271;-70
2022/05/27 12:41:37;;;;;;;654.08;622.30;;;20.70;99.90;;;;;;5037269;28;20190;-70
2022/05/27 12:44:22;;;;;;;673.30;640.33;;;21.10;99.90;;;;;;5043573;28;20650;-69
2022/05/27 12:46:55;;;;;;;675.63;642.38;;;21.40;99.90;;;;;;5051647;28;20502;-69
2022/05/27 12:49:24;;;;;;;711.92;675.55;;;21.50;99.90;;;;;;5052048;28;20201;-73
2022/05/27 12:51:50;;;;;;;714.38;677.90;;;21.40;99.90;;;;;;5033107;28;20175;-72
2022/05/27 12:54:46;;;;;;;718.38;681.30;;;21.40;99.90;;;;;;5043760;28;20604;-70
2022/05/27 13:03:35;;;;;;;748.35;707.88;;;20.90;99.90;;;;;;5039220;28;20208;-70
2022/05/27 13:06:07;;;;;;;734.60;695.70;;;20.60;99.90;;;;;;5051990;28;20249;-70
2022/05/27 13:08:42;;;;;;;741.13;702.47;;;20.40;99.90;;;;;;5048143;28;20187;-70
2022/05/27 13:11:34;;;;;;;727.33;689.50;;;20.40;99.90;;;;;;5047230;28;20204;-72
2022/05/27 13:14:08;;;;;;;740.88;701.40;;;20.60;99.90;;;;;;5051980;28;20229;-70